createdAt,value
2022-10-24T00:01:20.946Z,10.50
2022-10-24T00:03:48.212Z,14.90
2022-10-24T00:06:16.647Z,8.80
2022-10-24T00:08:45.343Z,9.20
2022-10-24T00:11:19.284Z,8.00
2022-10-24T00:13:47.922Z,8.40
2022-10-24T00:16:17.329Z,7.30
2022-10-24T00:18:44.796Z,6.90
2022-10-24T00:21:11.956Z,6.00
2022-10-24T00:23:39.239Z,5.00
2022-10-24T00:26:06.996Z,5.30
2022-10-24T00:28:35.273Z,5.90
2022-10-24T00:31:04.377Z,6.50
2022-10-24T00:36:13.741Z,9.10
2022-10-24T00:38:42.535Z,11.10
2022-10-24T00:41:14.308Z,10.10
2022-10-24T00:43:43.253Z,8.30
2022-10-24T00:46:10.422Z,8.80
2022-10-24T00:48:44.127Z,10.60
2022-10-24T00:51:26.023Z,9.20
2022-10-24T00:53:59.842Z,8.40
2022-10-24T00:56:29.450Z,12.10
2022-10-24T00:58:58.867Z,13.70
2022-10-24T01:01:26.183Z,15.20
2022-10-24T01:03:53.281Z,13.60
2022-10-24T01:06:53.235Z,14.90
2022-10-24T01:09:29.340Z,9.20
2022-10-24T01:12:00.052Z,9.40
2022-10-24T01:14:34.926Z,7.40
2022-10-24T01:17:04.944Z,5.90
2022-10-24T01:19:50.754Z,14.90
2022-10-24T01:22:23.293Z,15.00
2022-10-24T01:24:50.473Z,16.80
2022-10-24T01:27:29.490Z,22.00
2022-10-24T01:30:09.516Z,19.50
2022-10-24T01:32:59.785Z,7.10
2022-10-24T01:35:40.391Z,9.20
2022-10-24T01:38:16.223Z,7.10
2022-10-24T01:40:51.434Z,9.00
2022-10-24T01:43:22.005Z,5.90
2022-10-24T01:45:51.183Z,5.70
2022-10-24T01:48:20.206Z,6.20
2022-10-24T01:50:48.040Z,4.50
2022-10-24T01:53:15.126Z,5.50
2022-10-24T01:55:42.480Z,5.10
2022-10-24T01:58:09.507Z,5.80
2022-10-24T02:00:36.603Z,5.80
2022-10-24T02:03:17.463Z,6.30
2022-10-24T02:05:48.402Z,6.30
2022-10-24T02:08:19.036Z,5.70
2022-10-24T02:10:50.533Z,3.50
2022-10-24T02:13:32.889Z,5.10
2022-10-24T02:16:00.355Z,8.00
2022-10-24T02:18:30.563Z,7.80
2022-10-24T02:21:16.510Z,10.70
2022-10-24T02:24:01.651Z,15.20
2022-10-24T02:26:34.597Z,12.30
2022-10-24T02:29:09.366Z,10.60
2022-10-24T02:31:40.953Z,6.70
2022-10-24T02:34:08.296Z,8.80
2022-10-24T02:36:35.297Z,13.40
2022-10-24T02:39:02.222Z,6.10
2022-10-24T02:41:31.404Z,5.80
2022-10-24T02:43:58.481Z,3.90
2022-10-24T02:46:25.456Z,6.30
2022-10-24T02:48:56.217Z,5.30
2022-10-24T02:51:23.214Z,4.70
2022-10-24T02:53:50.430Z,6.10
2022-10-24T02:56:17.356Z,4.80
2022-10-24T02:58:44.361Z,5.20
2022-10-24T03:01:15.155Z,3.80
2022-10-24T03:03:42.240Z,4.40
2022-10-24T03:06:09.242Z,4.10
2022-10-24T03:08:36.206Z,4.90
2022-10-24T03:11:03.503Z,4.90
2022-10-24T03:13:33.425Z,5.00
2022-10-24T03:16:00.352Z,5.20
2022-10-24T03:18:27.360Z,5.90
2022-10-24T03:20:54.503Z,5.40
2022-10-24T03:23:22.244Z,10.90
2022-10-24T03:25:49.169Z,11.70
2022-10-24T03:28:16.246Z,9.60
2022-10-24T03:30:43.553Z,11.70
2022-10-24T03:33:14.475Z,11.30
2022-10-24T03:35:42.203Z,9.40
2022-10-24T03:38:09.353Z,8.30
2022-10-24T03:40:37.050Z,7.50
2022-10-24T03:43:04.425Z,6.50
2022-10-24T03:45:31.422Z,5.30
2022-10-24T03:47:58.336Z,6.80
2022-10-24T03:50:25.308Z,7.90
2022-10-24T03:52:52.252Z,7.20
2022-10-24T03:55:19.631Z,8.10
2022-10-24T03:57:47.777Z,7.80
2022-10-24T04:02:46.850Z,20.40
2022-10-24T04:05:14.078Z,19.30
2022-10-24T04:07:41.215Z,12.00
2022-10-24T04:10:08.501Z,13.40
2022-10-24T04:12:36.375Z,22.30
2022-10-24T04:15:05.132Z,18.90
2022-10-24T04:17:34.124Z,38.80
2022-10-24T04:20:01.144Z,44.70
2022-10-24T04:22:28.427Z,35.50
2022-10-24T04:24:55.326Z,49.60
2022-10-24T04:27:22.244Z,30.90
2022-10-24T04:29:49.180Z,33.80
2022-10-24T04:32:16.187Z,43.80
2022-10-24T04:34:43.079Z,38.50
2022-10-24T04:37:10.433Z,34.00
2022-10-24T04:39:37.519Z,29.40
2022-10-24T04:42:05.634Z,17.90
2022-10-24T04:44:33.392Z,11.20
2022-10-24T04:47:00.357Z,14.10
2022-10-24T04:49:27.345Z,20.50
2022-10-24T04:51:54.756Z,17.40
2022-10-24T04:54:21.664Z,10.90
2022-10-24T04:56:48.933Z,9.60
2022-10-24T04:59:16.347Z,8.80
2022-10-24T05:01:43.747Z,6.80
2022-10-24T05:04:10.848Z,9.50
2022-10-24T05:06:40.345Z,11.80
2022-10-24T05:09:10.456Z,13.50
2022-10-24T05:11:37.383Z,25.20
2022-10-24T05:14:04.777Z,22.60
2022-10-24T05:16:32.174Z,20.60
2022-10-24T05:19:00.877Z,15.10
2022-10-24T05:21:28.689Z,14.00
2022-10-24T05:23:55.762Z,18.60
2022-10-24T05:26:23.037Z,11.60
2022-10-24T05:28:52.556Z,15.50
2022-10-24T05:31:20.133Z,15.10
2022-10-24T05:33:47.741Z,32.50
2022-10-24T05:36:14.795Z,23.80
2022-10-24T05:38:41.996Z,24.50
2022-10-24T05:41:09.048Z,24.70
2022-10-24T05:43:36.334Z,21.60
2022-10-24T05:46:03.301Z,27.10
2022-10-24T05:48:30.396Z,24.10
2022-10-24T05:50:58.042Z,25.90
2022-10-24T05:53:26.325Z,15.60
2022-10-24T05:55:53.411Z,18.10
2022-10-24T05:58:22.373Z,32.00
2022-10-24T06:00:53.487Z,31.70
2022-10-24T06:03:21.762Z,37.10
2022-10-24T06:05:50.570Z,30.40
2022-10-24T06:08:17.922Z,22.70
2022-10-24T06:10:48.823Z,17.10
2022-10-24T06:13:18.003Z,17.50
2022-10-24T06:15:45.544Z,13.10
2022-10-24T06:18:16.522Z,14.20
2022-10-24T06:20:43.673Z,13.00
2022-10-24T06:23:10.785Z,20.40
2022-10-24T06:25:42.814Z,17.90
2022-10-24T06:28:09.770Z,13.50
2022-10-24T06:30:39.408Z,14.00
2022-10-24T06:33:06.466Z,19.00
2022-10-24T06:35:33.466Z,23.30
2022-10-24T06:38:01.125Z,21.90
2022-10-24T06:40:28.357Z,16.50
2022-10-24T06:42:56.009Z,15.10
2022-10-24T06:45:24.107Z,9.20
2022-10-24T06:47:54.102Z,11.80
2022-10-24T06:50:21.816Z,14.10
2022-10-24T06:52:48.738Z,9.90
2022-10-24T06:55:15.847Z,9.30
2022-10-24T06:57:43.244Z,13.40
2022-10-24T07:00:11.130Z,10.40
2022-10-24T07:02:38.090Z,16.80
2022-10-24T07:05:12.783Z,18.20
2022-10-24T07:07:42.172Z,18.70
2022-10-24T07:10:15.120Z,19.70
2022-10-24T07:12:43.703Z,23.00
2022-10-24T07:15:13.414Z,18.10
2022-10-24T07:17:42.650Z,19.70
2022-10-24T07:20:11.213Z,12.50
2022-10-24T07:22:38.802Z,15.70
2022-10-24T07:25:06.500Z,13.90
2022-10-24T07:27:34.116Z,21.70
2022-10-24T07:30:05.536Z,18.90
2022-10-24T07:32:34.234Z,21.20
2022-10-24T07:35:01.854Z,17.70
2022-10-24T07:37:29.346Z,17.40
2022-10-24T07:39:56.257Z,19.30
2022-10-24T07:42:24.516Z,12.20
2022-10-24T07:44:52.292Z,9.50
2022-10-24T07:47:19.279Z,9.10
2022-10-24T07:49:46.970Z,10.20
2022-10-24T07:52:13.994Z,17.60
2022-10-24T07:54:40.882Z,11.30
2022-10-24T07:57:07.953Z,9.50
2022-10-24T07:59:42.144Z,13.30
2022-10-24T08:02:12.989Z,8.80
2022-10-24T08:04:41.767Z,10.90
2022-10-24T08:07:13.565Z,14.00
2022-10-24T08:09:43.579Z,12.60
2022-10-24T08:12:10.782Z,13.20
2022-10-24T08:14:38.670Z,11.80
2022-10-24T08:17:09.551Z,8.60
2022-10-24T08:19:36.501Z,8.90
2022-10-24T08:22:03.699Z,7.60
2022-10-24T08:24:30.730Z,7.40
2022-10-24T08:26:57.740Z,9.40
2022-10-24T08:29:25.465Z,8.30
2022-10-24T08:31:53.558Z,9.90
2022-10-24T08:34:21.401Z,7.40
2022-10-24T08:36:49.103Z,5.10
2022-10-24T08:39:17.623Z,6.90
2022-10-24T08:41:51.398Z,13.60
2022-10-24T08:44:34.389Z,11.20
2022-10-24T08:50:23.326Z,16.40
2022-10-24T08:52:56.739Z,8.80
2022-10-24T08:55:53.632Z,17.80
2022-10-24T08:58:32.549Z,14.70
2022-10-24T09:01:01.488Z,14.00
2022-10-24T09:03:55.633Z,10.00
2022-10-24T09:06:28.913Z,12.50
2022-10-24T09:09:42.281Z,11.60
2022-10-24T09:12:12.464Z,10.00
2022-10-24T09:14:44.563Z,13.30
2022-10-24T09:17:21.001Z,13.20
2022-10-24T09:19:59.437Z,8.70
2022-10-24T09:22:28.428Z,8.30
2022-10-24T09:25:04.018Z,8.10
2022-10-24T09:27:36.550Z,5.70
2022-10-24T09:30:05.665Z,6.90
2022-10-24T09:32:33.571Z,7.60
2022-10-24T09:35:01.692Z,5.80
2022-10-24T09:37:34.224Z,9.70
2022-10-24T09:40:06.201Z,6.40
2022-10-24T09:42:34.654Z,17.10
2022-10-24T09:45:02.381Z,6.80
2022-10-24T09:47:29.822Z,35.10
2022-10-24T09:49:56.821Z,9.80
2022-10-24T09:52:25.990Z,7.80
2022-10-24T09:55:18.969Z,5.50
2022-10-24T09:57:46.513Z,5.50
2022-10-24T10:00:22.153Z,5.10
2022-10-24T10:03:02.141Z,5.70
2022-10-24T10:05:55.254Z,7.20
2022-10-24T10:08:31.417Z,4.10
2022-10-24T10:11:02.929Z,14.90
2022-10-24T10:13:37.808Z,6.20
2022-10-24T10:16:05.873Z,6.00
2022-10-24T10:18:34.076Z,8.80
2022-10-24T10:21:04.119Z,3.70
2022-10-24T10:23:38.656Z,15.00
2022-10-24T10:26:06.307Z,6.00
2022-10-24T10:28:36.059Z,5.80
2022-10-24T10:31:03.267Z,5.20
2022-10-24T10:36:25.372Z,10.10
2022-10-24T10:39:29.981Z,16.40
2022-10-24T10:41:58.784Z,7.00
2022-10-24T10:44:34.931Z,15.50
2022-10-24T10:47:39.521Z,4.40
2022-10-24T10:50:36.039Z,4.90
2022-10-24T10:53:36.500Z,10.30
2022-10-24T10:56:42.449Z,11.30
2022-10-24T10:59:34.887Z,6.60
2022-10-24T11:02:21.897Z,9.90
2022-10-24T11:05:20.452Z,8.00
2022-10-24T11:08:19.177Z,7.80
2022-10-24T11:10:57.869Z,10.70
2022-10-24T11:13:33.700Z,6.30
2022-10-24T11:16:03.242Z,7.90
2022-10-24T11:18:35.426Z,6.70
2022-10-24T11:21:07.230Z,6.90
2022-10-24T11:23:45.171Z,6.50
2022-10-24T11:26:17.468Z,14.70
2022-10-24T11:28:57.100Z,7.40
2022-10-24T11:31:28.094Z,16.70
2022-10-24T11:34:10.036Z,11.70
2022-10-24T11:36:46.046Z,6.90
2022-10-24T11:39:25.796Z,9.10
2022-10-24T11:42:12.260Z,7.30
2022-10-24T11:44:48.053Z,9.10
2022-10-24T11:47:25.273Z,8.90
2022-10-24T11:49:56.301Z,6.40
2022-10-24T11:52:27.851Z,7.00
2022-10-24T11:55:18.401Z,6.60
2022-10-24T11:57:47.611Z,10.80
2022-10-24T12:00:32.571Z,10.00
2022-10-24T12:03:17.862Z,5.70
2022-10-24T12:06:29.460Z,5.20
2022-10-24T12:09:15.672Z,5.40
2022-10-24T12:12:02.513Z,7.30
2022-10-24T12:14:35.657Z,12.30
2022-10-24T12:17:20.827Z,11.00
2022-10-24T12:19:48.903Z,9.70
2022-10-24T12:25:19.324Z,7.70
2022-10-24T12:27:55.532Z,8.00
2022-10-24T12:30:26.223Z,7.00
2022-10-24T12:35:40.813Z,8.00
2022-10-24T12:38:29.610Z,5.30
2022-10-24T12:40:57.733Z,14.60
2022-10-24T12:43:52.056Z,7.90
2022-10-24T12:46:23.454Z,7.10
2022-10-24T12:48:57.039Z,8.50
2022-10-24T12:51:39.882Z,4.00
2022-10-24T12:54:12.638Z,3.60
2022-10-24T12:56:52.014Z,5.50
2022-10-24T12:59:23.120Z,4.90
2022-10-24T13:01:50.974Z,6.70
2022-10-24T13:04:30.452Z,5.80
2022-10-24T13:07:07.824Z,5.80
2022-10-24T13:09:55.872Z,8.60
2022-10-24T13:12:53.461Z,4.00
2022-10-24T13:15:32.343Z,5.70
2022-10-24T13:18:32.847Z,8.50
2022-10-24T13:21:31.204Z,9.10
2022-10-24T13:24:14.853Z,11.90
2022-10-24T13:26:42.023Z,14.50
2022-10-24T13:29:16.927Z,13.70
2022-10-24T13:31:46.668Z,12.40
2022-10-24T13:34:21.192Z,10.40
2022-10-24T13:36:51.553Z,14.60
2022-10-24T13:39:21.361Z,30.50
2022-10-24T13:41:57.976Z,47.00
2022-10-24T13:44:30.512Z,41.80
2022-10-24T13:47:03.096Z,52.70
2022-10-24T13:50:06.282Z,70.60
2022-10-24T13:52:37.318Z,51.40
2022-10-24T13:55:27.583Z,55.60
2022-10-24T13:58:01.612Z,64.50
2022-10-24T14:00:31.232Z,100.50
2022-10-24T14:02:59.882Z,44.30
2022-10-24T14:05:35.357Z,32.80
2022-10-24T14:08:02.390Z,29.60
2022-10-24T14:10:31.150Z,29.90
2022-10-24T14:12:58.369Z,25.80
2022-10-24T14:15:35.781Z,36.10
2022-10-24T14:18:07.275Z,42.80
2022-10-24T14:20:35.695Z,56.90
2022-10-24T14:23:02.804Z,48.60
2022-10-24T14:25:36.336Z,53.50
2022-10-24T14:28:20.382Z,42.70
2022-10-24T14:30:55.702Z,59.20
2022-10-24T14:33:29.993Z,64.20
2022-10-24T14:35:58.277Z,60.40
2022-10-24T14:38:26.157Z,52.90
2022-10-24T14:41:06.200Z,57.20
2022-10-24T14:43:35.023Z,49.00
2022-10-24T14:46:06.228Z,47.70
2022-10-24T14:48:33.890Z,52.10
2022-10-24T14:51:11.349Z,55.20
2022-10-24T14:53:39.593Z,57.10
2022-10-24T14:56:18.374Z,54.20
2022-10-24T14:58:45.526Z,54.70
2022-10-24T15:01:39.568Z,47.90
2022-10-24T15:04:06.923Z,45.80
2022-10-24T15:06:41.869Z,54.00
2022-10-24T15:09:12.132Z,47.40
2022-10-24T15:11:46.640Z,54.10
2022-10-24T15:14:35.762Z,47.00
2022-10-24T15:17:21.608Z,58.10
2022-10-24T15:19:48.577Z,54.30
2022-10-24T15:22:29.670Z,50.20
2022-10-24T15:24:58.184Z,66.10
2022-10-24T15:27:30.404Z,53.30
2022-10-24T15:29:57.499Z,49.00
2022-10-24T15:32:26.513Z,47.70
2022-10-24T15:34:54.551Z,42.90
2022-10-24T15:37:23.477Z,49.00
2022-10-24T15:39:50.520Z,68.70
2022-10-24T15:42:20.053Z,80.80
2022-10-24T15:44:51.074Z,60.90
2022-10-24T15:47:18.249Z,74.40
2022-10-24T15:49:45.303Z,84.10
2022-10-24T15:52:13.286Z,88.80
2022-10-24T15:54:42.230Z,59.00
2022-10-24T15:57:12.621Z,83.80
2022-10-24T15:59:39.955Z,99.10
2022-10-24T16:02:12.751Z,77.40
2022-10-24T16:04:40.491Z,85.90
2022-10-24T16:09:39.522Z,78.50
2022-10-24T16:12:06.601Z,92.90
2022-10-24T16:14:35.837Z,115.30
2022-10-24T16:17:03.076Z,107.10
2022-10-24T16:19:30.171Z,145.80
2022-10-24T16:21:58.697Z,136.60
2022-10-24T16:24:26.505Z,120.80
2022-10-24T16:26:55.216Z,150.50
2022-10-24T16:29:22.194Z,156.40
2022-10-24T16:31:51.448Z,96.10
2022-10-24T16:34:18.576Z,88.30
2022-10-24T16:36:45.956Z,105.80
2022-10-24T16:39:14.692Z,98.20
2022-10-24T16:41:46.400Z,127.80
2022-10-24T16:44:14.166Z,126.50
2022-10-24T16:46:41.239Z,98.90
2022-10-24T16:49:08.583Z,124.80
2022-10-24T16:51:37.369Z,120.00
2022-10-24T16:56:34.905Z,100.80
2022-10-24T16:59:02.517Z,89.40
2022-10-24T17:01:29.792Z,95.70
2022-10-24T17:03:57.209Z,102.60
2022-10-24T17:06:24.286Z,113.40
2022-10-24T17:08:52.687Z,128.90
2022-10-24T17:11:43.761Z,125.10
2022-10-24T17:16:40.935Z,108.80
2022-10-24T17:19:16.911Z,116.30
2022-10-24T17:21:49.606Z,123.30
2022-10-24T17:24:19.081Z,168.60
2022-10-24T17:26:46.826Z,157.20
2022-10-24T17:29:17.447Z,184.80
2022-10-24T17:31:44.642Z,148.10
2022-10-24T17:34:11.697Z,129.50
2022-10-24T17:36:39.145Z,119.10
2022-10-24T17:39:11.256Z,114.30
2022-10-24T17:41:40.859Z,121.20
2022-10-24T17:44:12.663Z,118.40
2022-10-24T17:46:39.964Z,141.60
2022-10-24T17:49:08.262Z,121.30
2022-10-24T17:51:37.554Z,160.90
2022-10-24T17:54:06.051Z,154.10
2022-10-24T17:56:33.274Z,147.50
2022-10-24T17:59:00.294Z,164.00
2022-10-24T18:01:27.483Z,154.60
2022-10-24T18:03:54.826Z,146.40
2022-10-24T18:06:22.123Z,147.90
2022-10-24T18:08:54.417Z,110.60
2022-10-24T18:11:21.451Z,116.50
2022-10-24T18:13:48.551Z,130.30
2022-10-24T18:16:16.917Z,99.40
2022-10-24T18:18:47.411Z,98.60
2022-10-24T18:21:22.880Z,102.20
2022-10-24T18:23:49.935Z,88.80
2022-10-24T18:26:19.087Z,98.50
2022-10-24T18:28:47.977Z,71.30
2022-10-24T18:31:19.834Z,57.80
2022-10-24T18:33:47.357Z,69.50
2022-10-24T18:36:25.755Z,64.80
2022-10-24T18:38:57.266Z,55.00
2022-10-24T18:41:30.619Z,54.00
2022-10-24T18:43:59.306Z,60.10
2022-10-24T18:46:27.261Z,65.40
2022-10-24T18:48:54.928Z,58.90
2022-10-24T18:51:32.734Z,45.40
2022-10-24T18:54:10.725Z,45.40
2022-10-24T18:56:38.256Z,48.20
2022-10-24T18:59:13.988Z,51.00
2022-10-24T19:01:48.486Z,48.80
2022-10-24T19:04:24.097Z,49.70
2022-10-24T19:06:53.966Z,50.60
2022-10-24T19:09:23.068Z,48.80
2022-10-24T19:11:54.333Z,39.80
2022-10-24T19:14:24.588Z,43.70
2022-10-24T19:16:51.853Z,46.80
2022-10-24T19:19:29.219Z,49.50
2022-10-24T19:21:56.761Z,47.20
2022-10-24T19:24:23.971Z,44.10
2022-10-24T19:26:51.193Z,51.20
2022-10-24T19:29:18.613Z,51.10
2022-10-24T19:31:45.757Z,44.00
2022-10-24T19:34:13.284Z,52.90
2022-10-24T19:36:40.510Z,45.40
2022-10-24T19:39:09.486Z,53.40
2022-10-24T19:41:36.921Z,52.50
2022-10-24T19:44:05.328Z,51.20
2022-10-24T19:46:32.791Z,49.40
2022-10-24T19:48:59.739Z,50.90
2022-10-24T19:51:27.696Z,45.80
2022-10-24T19:53:54.729Z,48.50
2022-10-24T19:56:25.195Z,46.40
2022-10-24T19:58:53.839Z,67.50
2022-10-24T20:01:23.111Z,50.50
2022-10-24T20:03:51.474Z,52.30
2022-10-24T20:06:18.953Z,55.80
2022-10-24T20:08:47.660Z,55.40
2022-10-24T20:11:16.776Z,52.20
2022-10-24T20:13:44.233Z,52.30
2022-10-24T20:16:11.686Z,51.90
2022-10-24T20:18:42.643Z,57.30
2022-10-24T20:21:10.969Z,58.90
2022-10-24T20:23:38.374Z,68.00
2022-10-24T20:26:08.369Z,61.30
2022-10-24T20:28:36.859Z,61.50
2022-10-24T20:31:04.134Z,53.00
2022-10-24T20:33:31.137Z,65.70
2022-10-24T20:35:59.465Z,49.50
2022-10-24T20:38:27.322Z,78.90
2022-10-24T20:40:54.357Z,78.80
2022-10-24T20:43:23.227Z,75.70
2022-10-24T20:45:50.326Z,68.80
2022-10-24T20:48:17.326Z,67.20
2022-10-24T20:50:45.150Z,75.20
2022-10-24T20:53:12.439Z,76.80
2022-10-24T20:55:44.108Z,88.80
2022-10-24T20:58:13.304Z,85.70
2022-10-24T21:03:14.365Z,76.80
2022-10-24T21:05:42.147Z,80.30
2022-10-24T21:08:09.741Z,68.10
2022-10-24T21:10:36.775Z,69.00
2022-10-24T21:13:05.256Z,73.80
2022-10-24T21:15:32.264Z,85.40
2022-10-24T21:17:59.221Z,83.90
2022-10-24T21:20:26.389Z,87.20
2022-10-24T21:22:53.868Z,82.10
2022-10-24T21:25:20.854Z,74.00
2022-10-24T21:27:48.189Z,79.70
2022-10-24T21:30:16.639Z,88.80
2022-10-24T21:32:44.236Z,83.20
2022-10-24T21:35:11.301Z,85.80
2022-10-24T21:37:38.222Z,87.00
2022-10-24T21:40:05.687Z,85.60
2022-10-24T21:42:34.777Z,69.80
2022-10-24T21:45:02.126Z,83.60
2022-10-24T21:47:29.483Z,79.00
2022-10-24T21:49:56.388Z,87.00
2022-10-24T21:52:23.871Z,88.80
2022-10-24T21:54:50.918Z,87.90
2022-10-24T21:57:18.058Z,92.70
2022-10-24T21:59:46.367Z,74.40
2022-10-24T22:02:13.428Z,77.90
2022-10-24T22:04:40.650Z,81.90
2022-10-24T22:07:08.246Z,73.60
2022-10-24T22:09:35.590Z,54.10
2022-10-24T22:12:06.091Z,61.20
2022-10-24T22:14:33.112Z,58.90
2022-10-24T22:17:01.225Z,49.70
2022-10-24T22:19:29.909Z,49.30
2022-10-24T22:21:57.813Z,46.00
2022-10-24T22:24:25.246Z,45.80
2022-10-24T22:26:52.721Z,52.20
2022-10-24T22:29:21.765Z,54.60
2022-10-24T22:31:49.273Z,50.10
2022-10-24T22:34:19.082Z,38.10
2022-10-24T22:37:23.992Z,42.30
2022-10-24T22:39:51.614Z,42.90
2022-10-24T22:42:20.430Z,40.70
2022-10-24T22:44:47.970Z,34.50
2022-10-24T22:47:27.810Z,29.50
2022-10-24T22:50:21.881Z,33.80
2022-10-24T22:52:49.805Z,30.60
2022-10-24T22:55:33.346Z,31.40
2022-10-24T22:58:00.856Z,35.10
2022-10-24T23:00:28.021Z,35.80
2022-10-24T23:03:04.333Z,37.70
2022-10-24T23:05:41.821Z,33.90
2022-10-24T23:08:21.618Z,35.80
2022-10-24T23:10:48.922Z,29.80
2022-10-24T23:13:17.221Z,32.70
2022-10-24T23:15:44.250Z,36.50
2022-10-24T23:18:11.196Z,36.10
2022-10-24T23:20:44.644Z,40.80
2022-10-24T23:23:28.357Z,45.30
2022-10-24T23:26:02.784Z,38.80
2022-10-24T23:28:47.781Z,38.10
2022-10-24T23:31:14.938Z,42.40
2022-10-24T23:33:42.348Z,40.30
2022-10-24T23:36:09.549Z,44.10
2022-10-24T23:38:36.693Z,41.50
2022-10-24T23:41:03.970Z,44.30
2022-10-24T23:43:31.267Z,49.80
2022-10-24T23:46:00.449Z,41.60
2022-10-24T23:49:05.262Z,43.60
2022-10-24T23:51:37.313Z,44.90
2022-10-24T23:54:09.021Z,45.30
2022-10-24T23:56:36.324Z,44.50
2022-10-24T23:59:03.607Z,42.10
